Park City, UT (84098)

6:10 AM MDT on September 03, 2015 (GMT -0600)
Pinebrook Upper Ecker hill | | Change Station
CLOSE
Current Station
Personal Weather Station
Location: Park City, UT
Elevation: 6991 ft
Nearby Weather Stations

Elev 6991 ft 40.73 °N, 111.57 °W | Updated 1 minute ago

Clear
Clear
63.9 °F
Feels Like 63.9 °F
N
0.0
Wind Variable Wind from SSW

Today
High -- | Low -- °F
--% Chance of Precip.
Yesterday
High -- | Low -- °F
Precip. -- in
6:54 AM 7:55 PM
Waning Gibbous, 71% visible
Pressure 30.03 in
Visibility 10.0 miles
Clouds Clear
Dew Point 40 °F
Humidity 41%
Rainfall 0.00 in
Snow Depth Not available.
UV 0 out of 12
Pollen 8.80 out of 12
Air Quality Not available.
Flu Activity Not available.
METAR K36U 031155Z AUTO 20005G15KT 10SM CLR 21/02 A3003 RMK AO2 PWINO
Pressure 30.03 in
Visibility 10.0 miles
Clouds Clear
Dew Point 40 °F
Humidity 41%
Rainfall 0.00 in
Snow Depth Not available.
UV 0 out of 12
Pollen 8.80 out of 12
Air Quality Not available.
Flu Activity Not available.
METAR K36U 031155Z AUTO 20005G15KT 10SM CLR 21/02 A3003 RMK AO2 PWINO

10-Day Weather Forecast

×

Almanac

Astronomy

Sep. 03, 2015 Rise Set
Actual Time
Civil Twilight
Nautical Twilight
Astronomical Twilight
Moon
Length of Visible Light
Length of Day
Tomorrow will be .
, % of the Moon is Illuminated

Today's Extremes

State Highs State Lows

Community

WunderPhotos

Upload Photos

1,851,943 photos uploaded!

WunderBlogs® & News

Nearby

Air Quality

  Air Quality AQ Index Pollutant
Not available.

Snow Depth

Station Depth Elevation

Earthquake Activity

City Distance Mag. Time & Date
Minimum magnitude displayed is 2.5.

Coastal Water Temperatures

Place Temperature

Stations

Nearby Weather Stations

Station Location Temp. Windchill Dew Point Humidity Wind Precip. Elev Updated Type